CST,Max TemperatureF,Mean TemperatureF,Min TemperatureF,Max Dew PointF,MeanDew PointF,Min DewpointF,Max Humidity, Mean Humidity, Min Humidity, Max Sea Level PressureIn, Mean Sea Level PressureIn, Min Sea Level PressureIn, Max VisibilityMiles, Mean VisibilityMiles, Min VisibilityMiles, Max Wind SpeedMPH, Mean Wind SpeedMPH, Max Gust SpeedMPH,PrecipitationIn, CloudCover, Events, WindDirDegrees
2012-11-1,91,79,67,70,65,63,88,68,38,30.08,30.01,29.90,8,7,2,17,3,,0.16,5,Thunderstorm,242
2012-11-2,88,78,67,71,65,59,98,71,42,30.07,30.01,29.88,8,7,4,12,2,,1.50,6,,260
2012-11-3,76,72,68,71,67,64,94,88,78,30.06,30.01,29.93,12,5,2,9,1,,0.01,8,Fog-Rain,247
2012-11-4,72,69,66,69,64,61,94,85,69,30.07,30.02,29.98,8,7,4,17,10,34,0.04,8,Fog-Rain,31
2012-11-5,88,77,66,67,62,61,78,62,38,30.06,30.01,29.89,8,7,5,23,9,,0.00,6,,49
2012-11-6,91,78,66,69,64,61,77,61,37,30.10,30.01,29.90,8,7,5,14,6,,0.00,6,,14
2012-11-7,95,82,68,70,64,55,85,59,25,30.09,29.99,29.85,8,7,5,17,4,,0.00,4,,11
2012-11-8,95,81,67,71,64,59,83,61,27,30.08,30.00,29.85,8,7,5,17,10,,0.00,3,,330
2012-11-9,92,80,67,71,65,61,88,63,37,30.03,29.96,29.83,8,6,4,14,5,,0.00,3,,253
2012-11-10,91,79,67,71,64,59,88,63,40,30.15,29.99,29.86,8,6,4,12,3,,0.00,3,,214
2012-11-11,85,76,68,69,64,61,88,66,48,30.08,30.01,29.91,8,6,4,12,1,,0.00,4,,210
2012-11-12,91,79,67,71,64,59,88,64,44,30.07,30.00,29.88,8,6,2,14,8,,0.00,4,,23
2012-11-13,95,80,66,73,65,59,90,60,28,30.11,30.00,29.83,8,6,2,17,5,,0.00,3,,336
2012-11-14,94,81,68,74,67,59,100,70,28,30.13,30.05,29.92,8,5,1,14,3,,0.00,4,,250
2012-11-15,94,82,69,73,67,61,100,71,32,30.12,30.02,29.89,8,5,2,14,5,,0.00,3,,276
2012-11-16,89,78,68,73,64,59,85,64,43,30.10,30.02,29.91,8,6,2,17,8,,0.00,4,,295
2012-11-17,90,80,71,72,70,68,94,77,53,30.15,30.07,29.94,8,4,3,14,3,,0.00,5,,247
2012-11-18,87,78,68,72,67,63,100,70,41,30.14,30.08,30.03,6,5,3,12,5,,0.00,4,,294
2012-11-19,92,78,68,72,67,59,94,69,42,30.07,30.01,29.94,8,6,2,14,7,,0.00,1,,264
2012-11-20,91,80,68,71,67,63,94,70,41,30.06,29.99,29.85,8,7,4,14,3,,0.00,4,,240
2012-11-21,91,78,66,70,66,63,88,66,40,30.12,30.04,29.91,8,6,2,14,5,,0.00,5,,337
2012-11-22,91,78,66,71,65,63,88,67,41,30.10,30.04,29.91,8,7,4,12,6,,0.00,4,Rain,293
2012-11-23,89,78,68,70,66,61,84,67,42,30.10,30.02,29.88,8,6,2,9,2,,0.00,5,,210
2012-11-24,93,80,68,70,59,52,73,50,28,30.10,30.00,29.86,8,8,4,20,13,,0.00,5,,11
2012-11-25,87,77,67,66,60,55,78,57,33,30.06,30.01,29.95,8,7,6,14,9,,0.00,4,,296
2012-11-26,90,78,67,71,66,63,94,73,43,30.11,30.04,29.91,8,5,2,12,2,,0.00,4,,248
2012-11-27,91,80,69,71,68,59,94,74,40,30.15,30.06,29.93,8,5,2,12,2,,0.00,4,,252
2012-11-28,93,80,68,71,63,59,83,61,33,30.20,30.11,29.98,8,7,2,12,4,,0.00,1,,265
2012-11-29,94,80,66,72,63,45,88,63,22,30.14,30.05,29.90,8,6,2,12,6,,0.00,1,,331
2012-11-30,90,76,61,69,64,58,88,63,30,30.12,30.05,29.93,8,7,4,17,3,,0.00,1,,227